ESMS/MMX METAR and TAF weather

Enter ICAO airport designator
Station Type Date Time Source
ESMS METAR 2021/09/24 04:50 UTC NOAA

ESMS 240450Z 29014KT 9999 FEW024 SCT031 12/08 Q1005


Station Type Date Time Source
ESMS Decoded METAR 2021/09/24 04:50 UTC NOAA

Malmo / Sturup, Sweden (ESMS) 55-33N 013-22E
Sep 24, 2021 - 12:50 AM EDT / 2021.09.24 0450 UTC
Wind: from the WNW (290 degrees) at 16 MPH (14 KT):0
Visibility: greater than 7 mile(s):0
Sky conditions: partly cloudy
Temperature: 53 F (12 C)
Dew Point: 46 F (8 C)
Relative Humidity: 76%
Pressure (altimeter): 29.68 in. Hg (1005 hPa)
ob: ESMS 240450Z 29014KT 9999 FEW024 SCT031 12/08 Q1005
cycle: 5

Station Type Date Time Source
ESMS TAF 2021/09/24 06:06 UTC NOAA

TAF TAF ESMS 240501Z 2406/2506 29015KT 9999 BKN020
TEMPO 2415/2423 BKN012

Example: see airport list